Time;durP1;ratioP1;P1;durP2;ratioP2;P2;SDS_P1;SDS_P2;PMS_P1;PMS_P2;Temp;Humidity;BMP_temperature;BMP_pressure;BME280_temperature;BME280_humidity;BME280_pressure;Samples;Min_cycle;Max_cycle;Signal;HPM_P1;HPM_P2
2022/11/29 00:02:17;;;;;;;38.53;17.53;;;3.20;99.90;4.30;96878.00;;;;5105860;28;20485;-70
2022/11/29 00:05:07;;;;;;;35.80;14.37;;;3.10;99.90;4.30;96870.00;;;;5104587;28;20433;-70
2022/11/29 00:07:56;;;;;;;26.00;14.93;;;3.10;99.90;4.30;96866.00;;;;5105657;28;20428;-69
2022/11/29 00:10:45;;;;;;;30.77;15.73;;;3.10;99.90;4.20;96874.00;;;;5099904;28;20421;-70
2022/11/29 00:13:35;;;;;;;29.70;16.97;;;3.00;99.90;4.20;96871.00;;;;5103588;28;20508;-70
2022/11/29 00:16:24;;;;;;;30.73;16.63;;;3.00;99.90;4.20;96871.00;;;;5108931;28;20487;-70
2022/11/29 00:19:13;;;;;;;26.93;16.03;;;3.00;99.90;4.10;96867.00;;;;5109148;28;20421;-70
2022/11/29 00:22:03;;;;;;;24.70;15.23;;;4.60;99.90;4.10;96868.00;;;;5097666;28;20195;-70
2022/11/29 00:24:52;;;;;;;30.90;16.30;;;3.00;99.90;4.20;96869.00;;;;5110398;28;20525;-70
2022/11/29 00:27:41;;;;;;;31.40;15.50;;;3.00;99.90;4.20;96872.00;;;;5104571;28;20436;-69
2022/11/29 00:30:31;;;;;;;29.37;15.37;;;2.90;99.90;4.20;96866.00;;;;5109271;28;20844;-70
2022/11/29 00:33:19;;;;;;;30.80;16.60;;;3.00;99.90;4.10;96854.00;;;;5097863;28;20468;-70
2022/11/29 00:36:08;;;;;;;29.47;13.00;;;2.80;99.90;3.70;96860.00;;;;5110036;28;20424;-69
2022/11/29 00:38:57;;;;;;;23.83;12.63;;;2.90;99.90;3.70;96863.00;;;;5109130;28;21120;-69
2022/11/29 00:41:46;;;;;;;24.43;13.93;;;2.80;99.90;3.80;96864.00;;;;5109807;28;20421;-70
2022/11/29 00:44:34;;;;;;;31.97;14.87;;;2.80;99.90;3.80;96865.00;;;;5096533;28;20484;-70
2022/11/29 00:47:24;;;;;;;23.33;14.17;;;2.70;99.90;3.80;96867.00;;;;5109524;28;20429;-69
2022/11/29 00:50:13;;;;;;;30.17;15.67;;;2.70;99.90;3.70;96863.00;;;;5108399;28;20455;-69
2022/11/29 00:53:02;;;;;;;28.77;14.93;;;2.80;99.90;3.70;96869.00;;;;5109242;28;20523;-70
2022/11/29 00:55:52;;;;;;;26.37;13.00;;;2.80;99.90;3.60;96857.00;;;;5108789;28;20421;-69
2022/11/29 00:58:42;;;;;;;24.73;14.43;;;2.70;99.90;3.60;96870.00;;;;5108871;28;20792;-69
2022/11/29 01:01:30;;;;;;;22.53;14.23;;;2.70;99.90;3.80;96863.00;;;;5108845;28;20522;-69
2022/11/29 01:04:21;;;;;;;24.20;12.53;;;2.70;99.90;3.80;96873.00;;;;5112070;27;20467;-70
2022/11/29 01:07:09;;;;;;;26.93;13.53;;;2.70;99.90;4.00;96866.00;;;;5127884;27;20435;-70
2022/11/29 01:09:58;;;;;;;28.97;15.67;;;2.80;99.90;4.00;96871.00;;;;5119644;27;20424;-70
2022/11/29 01:12:47;;;;;;;30.10;14.63;;;2.80;99.90;3.90;96870.00;;;;5122836;27;20958;-70
2022/11/29 01:15:36;;;;;;;27.50;16.00;;;2.70;99.90;3.90;96862.00;;;;5130004;27;20470;-70
2022/11/29 01:18:25;;;;;;;31.47;17.83;;;2.70;99.90;4.00;96871.00;;;;5129672;27;20985;-70
2022/11/29 01:21:19;;;;;;;40.03;19.50;;;2.70;99.90;4.00;96857.00;;;;5129730;27;20439;-70
2022/11/29 01:24:07;;;;;;;33.30;16.53;;;2.80;99.90;4.00;96864.00;;;;5120893;27;20485;-70
2022/11/29 01:26:56;;;;;;;34.23;17.27;;;2.80;99.90;4.10;96866.00;;;;5116210;27;20441;-70
2022/11/29 01:29:45;;;;;;;36.47;17.87;;;;;4.00;96860.00;;;;5126425;27;20999;-70
2022/11/29 01:32:34;;;;;;;34.23;17.27;;;;;4.10;96858.00;;;;5129513;27;20851;-70
2022/11/29 01:35:23;;;;;;;35.20;19.87;;;2.80;99.90;4.10;96860.00;;;;5129623;27;20459;-70
2022/11/29 01:38:13;;;;;;;34.57;17.83;;;2.80;99.90;4.00;96858.00;;;;5115695;27;20836;-70
2022/11/29 01:41:05;;;;;;;36.40;17.70;;;2.90;99.90;3.90;96855.00;;;;5129239;27;20427;-70
2022/11/29 01:43:59;;;;;;;43.00;21.60;;;2.80;99.90;4.00;96862.00;;;;5129533;27;20508;-70
2022/11/29 01:46:48;;;;;;;43.07;19.30;;;2.90;99.90;4.00;96851.00;;;;5128021;27;20481;-70
2022/11/29 01:49:41;;;;;;;32.57;18.43;;;2.80;99.90;3.90;96864.00;;;;5129787;28;20420;-70
2022/11/29 01:52:33;;;;;;;35.23;19.30;;;2.50;99.90;4.00;96863.00;;;;5128833;28;20424;-70
2022/11/29 01:55:23;;;;;;;41.87;20.03;;;2.80;99.90;4.00;96863.00;;;;5129564;28;20463;-71
2022/11/29 01:58:12;;;;;;;38.43;18.43;;;2.80;99.90;3.90;96869.00;;;;5118502;28;20424;-70
2022/11/29 02:01:01;;;;;;;37.63;19.47;;;2.80;99.90;3.90;96864.00;;;;5117597;28;20419;-70
2022/11/29 02:03:50;;;;;;;44.17;20.40;;;2.70;99.90;4.00;96855.00;;;;5129359;28;20455;-70
2022/11/29 02:06:41;;;;;;;45.83;21.73;;;2.70;99.90;4.00;96857.00;;;;5128376;28;20841;-70
2022/11/29 02:09:29;;;;;;;38.40;18.67;;;2.80;99.90;4.00;96865.00;;;;5116559;28;20413;-70
2022/11/29 02:12:32;;;;;;;35.83;17.80;;;2.70;99.90;4.00;96868.00;;;;5126850;28;20458;-70
2022/11/29 02:15:36;;;;;;;31.87;16.70;;;2.80;99.90;4.00;96857.00;;;;5128517;28;20547;-71
2022/11/29 02:18:37;;;;;;;40.30;21.90;;;2.70;99.90;4.00;96863.00;;;;5128725;28;20435;-70
2022/11/29 02:21:39;;;;;;;38.47;18.37;;;2.80;99.90;3.80;96862.00;;;;5128284;28;20953;-70
2022/11/29 02:25:00;;;;;;;34.60;17.00;;;2.80;99.90;3.90;96857.00;;;;5128479;28;20859;-70
2022/11/29 02:28:57;;;;;;;33.67;19.80;;;2.80;99.90;3.80;96861.00;;;;5127715;28;20500;-71
2022/11/29 02:32:26;;;;;;;37.83;18.23;;;2.70;99.90;3.90;96866.00;;;;5112112;28;20424;-70
2022/11/29 02:35:38;;;;;;;36.20;19.57;;;2.70;99.90;3.90;96868.00;;;;5119019;28;20527;-70
2022/11/29 02:38:49;;;;;;;50.07;20.23;;;2.70;99.90;3.90;96858.00;;;;5123260;27;20435;-69
2022/11/29 02:42:03;;;;;;;36.30;18.90;;;2.70;99.90;4.00;96865.00;;;;5132984;27;20938;-70
2022/11/29 02:45:08;;;;;;;41.80;19.53;;;2.70;99.90;3.80;96858.00;;;;5121529;27;20420;-70
2022/11/29 02:48:17;;;;;;;39.20;18.83;;;2.70;99.90;3.90;96867.00;;;;5131286;27;20476;-70
2022/11/29 02:51:13;;;;;;;47.07;18.47;;;2.70;99.90;3.90;96871.00;;;;5122257;27;20505;-69
2022/11/29 02:54:08;;;;;;;38.30;19.33;;;2.70;99.90;3.70;96866.00;;;;5132419;27;20493;-70
2022/11/29 02:57:04;;;;;;;31.77;17.87;;;2.70;99.90;3.90;96874.00;;;;5131567;27;20435;-69
2022/11/29 03:00:01;;;;;;;31.80;15.43;;;2.60;99.90;3.90;96865.00;;;;5128364;27;20946;-70
2022/11/29 03:02:58;;;;;;;37.73;17.30;;;2.70;99.90;3.90;96866.00;;;;5132474;27;20470;-70
2022/11/29 03:05:57;;;;;;;39.40;16.87;;;2.70;99.90;3.90;96870.00;;;;5131956;27;20423;-70
2022/11/29 03:08:56;;;;;;;39.37;18.27;;;2.70;99.90;3.90;96868.00;;;;5124469;27;20492;-70
2022/11/29 03:11:53;;;;;;;37.83;17.43;;;2.70;99.90;3.80;96871.00;;;;5125889;27;20512;-70
2022/11/29 03:14:55;;;;;;;45.93;19.90;;;2.70;99.90;3.90;96877.00;;;;5132087;27;20548;-70
2022/11/29 03:17:59;;;;;;;33.83;17.07;;;2.70;99.90;3.80;96870.00;;;;5122561;27;20423;-70
2022/11/29 03:21:07;;;;;;;42.90;17.37;;;2.80;99.90;3.80;96880.00;;;;5125670;27;20926;-70
2022/11/29 03:24:05;;;;;;;36.20;17.50;;;2.70;99.90;3.80;96875.00;;;;5132072;27;21007;-70
2022/11/29 03:27:02;;;;;;;45.67;20.87;;;2.70;99.90;3.80;96880.00;;;;5131989;27;20508;-70
2022/11/29 03:29:56;;;;;;;34.60;17.27;;;2.60;99.90;3.80;96883.00;;;;5131045;27;20946;-70
2022/11/29 03:32:54;;;;;;;43.53;19.70;;;2.60;99.90;3.80;96877.00;;;;5131455;27;20931;-70
2022/11/29 03:35:50;;;;;;;39.47;16.80;;;2.80;99.90;3.80;96877.00;;;;5128374;27;20501;-70
2022/11/29 03:38:42;;;;;;;40.20;19.07;;;2.60;99.90;3.90;96888.00;;;;5121016;27;20423;-70
2022/11/29 03:41:40;;;;;;;43.37;18.13;;;2.60;99.90;3.80;96888.00;;;;5124236;27;20500;-69
2022/11/29 03:44:36;;;;;;;54.97;21.37;;;2.60;99.90;3.80;96894.00;;;;5127309;27;20808;-69
2022/11/29 03:47:30;;;;;;;46.53;19.83;;;2.60;99.90;3.70;96889.00;;;;5117406;27;20480;-70
2022/11/29 03:50:25;;;;;;;39.33;19.63;;;2.60;99.90;3.80;96893.00;;;;5129786;27;20807;-70
2022/11/29 03:53:20;;;;;;;44.03;18.07;;;2.60;99.90;3.80;96896.00;;;;5119336;27;20480;-69
2022/11/29 03:56:28;;;;;;;47.60;21.20;;;2.80;99.90;3.80;96899.00;;;;5124078;27;20512;-69
2022/11/29 03:59:35;;;;;;;40.17;18.27;;;2.60;99.90;3.80;96894.00;;;;5128927;27;20444;-70
2022/11/29 04:02:57;;;;;;;44.90;18.73;;;2.40;99.90;3.50;96893.00;;;;5122116;27;20838;-69
2022/11/29 04:06:21;;;;;;;46.67;22.17;;;2.60;99.90;3.70;96894.00;;;;5130753;27;20443;-70
2022/11/29 04:09:47;;;;;;;45.03;18.63;;;2.50;99.90;3.70;96903.00;;;;5116053;27;20436;-70
2022/11/29 04:13:05;;;;;;;42.27;18.77;;;2.70;99.90;3.80;96901.00;;;;5125972;27;20415;-70
2022/11/29 04:16:49;;;;;;;36.37;20.20;;;2.50;99.90;3.80;96906.00;;;;5130896;27;20878;-70
2022/11/29 04:20:00;;;;;;;42.47;17.53;;;2.50;99.90;3.80;96906.00;;;;5098335;27;20790;-70
2022/11/29 04:23:46;;;;;;;47.53;20.97;;;2.60;99.90;3.90;96907.00;;;;5131647;27;20452;-70
2022/11/29 04:27:22;;;;;;;35.57;18.27;;;2.60;99.90;3.80;96916.00;;;;5102969;27;20427;-70
2022/11/29 04:30:19;;;;;;;39.33;18.53;;;2.60;99.90;3.90;96916.00;;;;5100369;27;20451;-69
2022/11/29 04:33:59;;;;;;;46.13;21.13;;;2.70;99.90;3.90;96917.00;;;;5111735;27;21018;-70
2022/11/29 04:37:14;;;;;;;38.20;18.53;;;2.60;99.90;3.90;96920.00;;;;5122668;27;20941;-70
2022/11/29 04:40:22;;;;;;;54.67;19.90;;;2.70;99.90;3.80;96927.00;;;;5118685;27;20951;-70
2022/11/29 04:43:29;;;;;;;53.53;24.17;;;2.70;99.90;3.80;96920.00;;;;5130652;27;20458;-70
2022/11/29 04:46:54;;;;;;;48.53;22.80;;;2.70;99.90;3.60;96914.00;;;;5130046;27;20988;-70
2022/11/29 04:50:07;;;;;;;52.07;23.10;;;2.60;99.90;3.60;96921.00;;;;5121057;27;20447;-70
2022/11/29 04:53:27;;;;;;;53.47;21.20;;;2.60;99.90;3.70;96935.00;;;;5122682;27;20545;-70
2022/11/29 04:56:28;;;;;;;46.33;20.30;;;2.60;99.90;3.60;96925.00;;;;5125244;27;20468;-70
2022/11/29 04:59:25;;;;;;;58.17;20.70;;;2.60;99.90;3.40;96929.00;;;;5129800;27;20487;-70
2022/11/29 05:02:32;;;;;;;41.07;19.47;;;2.50;99.90;3.60;96932.00;;;;5128670;27;20469;-71
2022/11/29 05:05:33;;;;;;;45.13;21.43;;;2.50;99.90;3.70;96932.00;;;;5118222;27;20416;-70
2022/11/29 05:08:32;;;;;;;43.00;20.93;;;2.50;99.90;3.80;96936.00;;;;5118861;27;20959;-71
2022/11/29 05:11:41;;;;;;;43.90;19.63;;;2.50;99.90;3.70;96939.00;;;;5122307;27;20914;-69
2022/11/29 05:14:44;;;;;;;56.40;20.43;;;2.50;99.90;3.70;96937.00;;;;5130324;27;20455;-69
2022/11/29 05:17:42;;;;;;;56.67;22.97;;;2.50;99.90;3.70;96936.00;;;;5118279;27;20431;-69
2022/11/29 05:20:45;;;;;;;48.10;20.70;;;2.50;99.90;3.70;96941.00;;;;5126327;27;21116;-70
2022/11/29 05:23:49;;;;;;;55.40;21.83;;;2.50;99.90;3.70;96941.00;;;;5119958;27;20470;-70
2022/11/29 05:26:49;;;;;;;43.70;19.87;;;2.50;99.90;3.30;96941.00;;;;5119151;27;20443;-70
2022/11/29 05:29:46;;;;;;;62.33;22.07;;;2.40;99.90;3.60;96937.00;;;;5127860;27;20461;-70
2022/11/29 05:32:44;;;;;;;49.90;21.70;;;2.40;99.90;3.60;96939.00;;;;5128579;27;20447;-71
2022/11/29 05:35:52;;;;;;;60.53;23.23;;;2.40;99.90;3.40;96941.00;;;;5128633;27;20463;-70
2022/11/29 05:39:04;;;;;;;52.90;21.90;;;2.40;99.90;3.50;96937.00;;;;5113606;27;21002;-70
2022/11/29 05:42:08;;;;;;;40.93;16.30;;;2.40;99.90;3.60;96948.00;;;;5125278;27;20472;-70
2022/11/29 05:45:01;;;;;;;47.90;18.63;;;2.40;99.90;3.60;96946.00;;;;5118163;27;20482;-71
2022/11/29 05:47:59;;;;;;;45.20;19.83;;;2.60;99.90;3.50;96947.00;;;;5128841;27;20415;-70
2022/11/29 05:51:05;;;;;;;57.80;22.03;;;2.50;99.90;3.60;96941.00;;;;5128907;27;20416;-71
2022/11/29 05:54:08;;;;;;;48.30;20.53;;;2.40;99.90;3.70;96945.00;;;;5128684;28;20463;-70
2022/11/29 05:57:12;;;;;;;51.80;23.00;;;2.40;99.90;3.60;96943.00;;;;5117476;28;20976;-70
2022/11/29 06:00:04;;;;;;;44.70;21.47;;;2.40;99.90;3.80;96947.00;;;;5116062;28;20436;-71
2022/11/29 06:03:02;;;;;;;62.23;23.13;;;2.50;99.90;3.70;96953.00;;;;5120240;28;20513;-71
2022/11/29 06:05:59;;;;;;;51.03;22.83;;;2.50;99.90;3.80;96947.00;;;;5122568;28;20472;-71
2022/11/29 06:08:56;;;;;;;56.43;23.63;;;2.60;99.90;3.80;96959.00;;;;5119997;28;20488;-71
2022/11/29 06:11:50;;;;;;;53.17;22.10;;;2.50;99.90;3.80;96958.00;;;;5114503;28;20421;-71
2022/11/29 06:14:56;;;;;;;55.07;22.73;;;2.50;99.90;3.70;96952.00;;;;5122473;27;20440;-70
2022/11/29 06:18:09;;;;;;;46.10;21.77;;;2.60;99.90;3.60;96955.00;;;;5125875;27;20801;-71
2022/11/29 06:21:21;;;;;;;60.17;23.50;;;2.80;99.90;3.60;96959.00;;;;5128454;27;20423;-71
2022/11/29 06:24:33;;;;;;;42.30;19.57;;;2.70;99.90;3.60;96963.00;;;;5124671;27;20432;-70
2022/11/29 06:27:42;;;;;;;42.90;20.03;;;2.50;99.90;3.70;96969.00;;;;5123017;27;20444;-70
2022/11/29 06:30:46;;;;;;;48.50;21.43;;;2.50;99.90;3.80;96971.00;;;;5120516;27;20558;-70
2022/11/29 06:33:45;;;;;;;41.93;21.37;;;2.60;99.90;3.80;96971.00;;;;5118817;27;20493;-70
2022/11/29 06:36:41;;;;;;;61.30;23.43;;;2.80;99.90;3.70;96966.00;;;;5119753;27;20456;-70
2022/11/29 06:39:31;;;;;;;53.33;22.40;;;2.60;99.90;3.80;96968.00;;;;5118516;27;20443;-70
2022/11/29 06:42:20;;;;;;;45.67;20.37;;;2.60;99.90;3.80;96967.00;;;;5122733;27;20412;-70
2022/11/29 06:45:16;;;;;;;44.73;19.10;;;2.70;99.90;3.80;96972.00;;;;5125804;27;21028;-70
2022/11/29 06:48:07;;;;;;;48.90;21.60;;;2.60;99.90;3.80;96975.00;;;;5123523;27;20416;-70
2022/11/29 06:51:07;;;;;;;52.73;21.13;;;2.60;99.90;3.80;96975.00;;;;5124967;27;20455;-70
2022/11/29 06:54:09;;;;;;;46.23;19.60;;;2.60;99.90;3.70;96978.00;;;;5124102;27;20577;-70
2022/11/29 06:57:06;;;;;;;43.83;20.77;;;2.60;99.90;3.60;96981.00;;;;5122225;27;20467;-70
2022/11/29 07:00:05;;;;;;;52.43;19.47;;;2.70;99.90;3.70;96988.00;;;;5118389;27;20843;-70
2022/11/29 07:03:18;;;;;;;51.13;20.93;;;2.60;99.90;3.70;96990.00;;;;5123230;27;20535;-70
2022/11/29 07:06:16;;;;;;;39.13;18.97;;;2.50;99.90;3.70;96986.00;;;;5123569;27;20442;-70
2022/11/29 07:09:14;;;;;;;50.17;17.53;;;2.50;99.90;3.40;96988.00;;;;5117643;27;20481;-70
2022/11/29 07:12:04;;;;;;;37.17;17.80;;;2.50;99.90;3.60;96988.00;;;;5123717;27;20421;-70
2022/11/29 07:14:53;;;;;;;46.23;19.60;;;2.40;99.90;3.70;96993.00;;;;5117924;27;20448;-70
2022/11/29 07:18:03;;;;;;;32.50;17.43;;;2.50;99.90;3.80;97003.00;;;;5127102;27;20463;-70
2022/11/29 07:21:03;;;;;;;51.90;19.40;;;2.50;99.90;3.90;97006.00;;;;5117130;27;20930;-69
2022/11/29 07:24:04;;;;;;;45.83;18.53;;;2.50;99.90;3.80;97005.00;;;;5116721;27;20512;-71
2022/11/29 07:27:04;;;;;;;40.97;18.73;;;2.60;99.90;3.90;97012.00;;;;5122220;27;20542;-70
2022/11/29 07:30:10;;;;;;;39.47;19.03;;;2.60;99.90;3.80;97019.00;;;;5120899;27;20444;-70
2022/11/29 07:33:07;;;;;;;39.50;18.37;;;1.20;99.90;3.80;97010.00;;;;5121733;27;20459;-70
2022/11/29 07:36:05;;;;;;;51.07;20.10;;;2.60;99.90;3.90;97016.00;;;;5123055;27;20507;-71
2022/11/29 07:39:08;;;;;;;41.13;17.90;;;2.60;99.90;4.00;97024.00;;;;5120887;27;20539;-71
2022/11/29 07:42:08;;;;;;;43.57;19.83;;;2.70;99.90;4.00;97016.00;;;;5114318;27;20823;-71
2022/11/29 07:45:06;;;;;;;45.73;19.47;;;2.70;99.90;4.00;97015.00;;;;5126899;27;20899;-70
2022/11/29 07:47:55;;;;;;;42.37;19.67;;;2.70;99.90;3.80;97028.00;;;;5124447;27;20506;-71
2022/11/29 07:50:44;;;;;;;39.20;18.43;;;2.70;99.90;3.90;97023.00;;;;5121331;27;20431;-70
2022/11/29 07:53:33;;;;;;;31.37;16.03;;;2.70;99.90;3.90;97023.00;;;;5131942;27;20863;-71
2022/11/29 07:56:21;;;;;;;36.90;16.87;;;2.70;99.90;3.90;97020.00;;;;5130217;27;20456;-70
2022/11/29 07:59:13;;;;;;;29.27;14.77;;;2.70;99.90;4.00;97024.00;;;;5118883;27;20460;-70
2022/11/29 08:02:02;;;;;;;42.70;17.97;;;;;4.00;97020.00;;;;5123786;27;20420;-71
2022/11/29 08:04:53;;;;;;;37.00;16.00;;;2.70;99.90;4.00;97015.00;;;;5127803;27;20434;-70
2022/11/29 08:07:42;;;;;;;35.93;17.63;;;2.70;99.90;4.00;97019.00;;;;5121869;27;20493;-70
2022/11/29 08:10:31;;;;;;;30.63;16.60;;;2.70;99.90;4.00;97018.00;;;;5121421;27;20939;-70
2022/11/29 08:13:20;;;;;;;38.17;18.37;;;2.80;99.90;3.70;97026.00;;;;5119022;27;20432;-69
2022/11/29 08:16:16;;;;;;;44.50;19.53;;;2.70;99.90;3.60;97018.00;;;;5123170;27;20434;-69
2022/11/29 08:19:05;;;;;;;44.53;19.13;;;2.70;99.90;3.50;97023.00;;;;5125045;27;20915;-70
2022/11/29 08:21:54;;;;;;;50.07;20.77;;;2.70;99.90;3.50;97022.00;;;;5118072;27;20409;-69
2022/11/29 08:24:43;;;;;;;34.33;17.93;;;2.70;99.90;3.60;97021.00;;;;5122577;27;20439;-69
2022/11/29 08:27:31;;;;;;;40.97;18.53;;;2.70;99.90;3.40;97025.00;;;;5118506;27;20428;-69
2022/11/29 08:30:22;;;;;;;47.23;21.10;;;2.60;99.90;3.60;97021.00;;;;5119480;27;20423;-69
2022/11/29 08:33:12;;;;;;;41.43;19.60;;;2.70;99.90;3.80;97027.00;;;;5120972;27;20468;-69
2022/11/29 08:36:05;;;;;;;42.57;21.83;;;2.70;99.90;3.70;97022.00;;;;5126453;27;20416;-69
2022/11/29 08:38:54;;;;;;;46.97;21.13;;;2.70;99.90;3.70;97021.00;;;;5120406;27;20505;-69
2022/11/29 08:41:49;;;;;;;39.60;17.40;;;2.90;99.90;3.80;97028.00;;;;5122290;27;20930;-69
2022/11/29 08:44:38;;;;;;;39.93;19.43;;;2.70;99.90;3.60;97020.00;;;;5119940;27;20436;-69
2022/11/29 08:47:36;;;;;;;37.50;17.83;;;2.70;99.90;3.80;97018.00;;;;5115299;27;20426;-68
2022/11/29 08:50:26;;;;;;;35.90;14.90;;;2.70;99.90;3.60;97019.00;;;;5117643;27;20431;-69
2022/11/29 08:56:22;;;;;;;39.77;19.97;;;2.70;99.90;3.80;97031.00;;;;5122132;27;20431;-70
2022/11/29 08:59:31;;;;;;;34.50;17.00;;;2.80;99.90;3.80;97029.00;;;;5114951;27;20445;-69
2022/11/29 09:02:20;;;;;;;39.50;19.90;;;2.80;99.90;4.00;97034.00;;;;5121096;27;20432;-69
2022/11/29 09:05:10;;;;;;;44.47;20.30;;;2.80;99.90;4.10;97040.00;;;;5121149;27;20420;-69
2022/11/29 09:08:00;;;;;;;37.80;18.17;;;2.90;99.90;4.30;97037.00;;;;5114677;27;20428;-70
2022/11/29 09:10:49;;;;;;;38.00;17.57;;;2.90;99.90;4.40;97033.00;;;;5117291;27;20881;-69
2022/11/29 09:13:38;;;;;;;40.60;18.87;;;3.00;99.90;4.40;97045.00;;;;5115278;27;20975;-70
2022/11/29 09:16:32;;;;;;;32.03;16.87;;;3.00;99.90;4.50;97042.00;;;;5119918;27;20469;-69
2022/11/29 09:19:21;;;;;;;50.33;19.77;;;3.10;99.90;4.60;97047.00;;;;5120753;27;20431;-69
2022/11/29 09:22:09;;;;;;;41.60;18.67;;;3.20;99.90;4.70;97039.00;;;;5120558;27;20455;-69
2022/11/29 09:24:59;;;;;;;44.60;18.17;;;3.30;99.90;4.80;97041.00;;;;5124153;27;20424;-69
2022/11/29 09:27:48;;;;;;;38.20;18.23;;;3.50;99.90;4.90;97038.00;;;;5122050;27;20954;-69
2022/11/29 09:30:37;;;;;;;35.07;18.37;;;3.40;99.90;4.90;97039.00;;;;5119746;27;20413;-69
2022/11/29 09:33:26;;;;;;;40.67;20.63;;;3.50;99.90;5.00;97047.00;;;;5119492;27;20455;-69
2022/11/29 09:36:16;;;;;;;33.27;17.27;;;3.50;99.90;5.10;97047.00;;;;5117718;27;20291;-69
2022/11/29 09:39:05;;;;;;;35.07;18.47;;;3.60;99.90;5.10;97048.00;;;;5119380;27;20232;-69
2022/11/29 09:42:27;;;;;;;34.63;18.53;;;3.60;99.90;5.20;97043.00;;;;5119777;27;20190;-70
2022/11/29 09:45:20;;;;;;;35.17;17.40;;;3.70;99.90;5.20;97052.00;;;;5119708;27;20593;-70
2022/11/29 09:49:00;;;;;;;37.27;18.70;;;3.80;99.90;5.20;97049.00;;;;5119570;27;20205;-69
2022/11/29 09:51:55;;;;;;;41.13;19.50;;;3.80;99.90;5.20;97053.00;;;;5081474;27;20198;-69
2022/11/29 09:54:54;;;;;;;33.23;18.03;;;3.80;99.90;5.20;97044.00;;;;5118195;28;20229;-69
2022/11/29 09:57:45;;;;;;;40.47;19.03;;;3.80;99.90;5.30;97033.00;;;;5112269;28;20222;-69
2022/11/29 10:00:38;;;;;;;35.87;18.63;;;3.90;99.90;5.30;97040.00;;;;5117454;28;20198;-70
2022/11/29 10:03:31;;;;;;;46.30;20.60;;;3.90;99.90;5.40;97035.00;;;;5121522;27;20750;-69
2022/11/29 10:06:25;;;;;;;36.70;20.17;;;3.90;99.90;5.40;97033.00;;;;5115748;28;20198;-69
2022/11/29 10:09:21;;;;;;;37.07;18.17;;;4.00;99.90;5.40;97024.00;;;;5118727;28;20228;-69
2022/11/29 10:12:18;;;;;;;26.07;16.00;;;3.90;99.90;5.10;97027.00;;;;5113787;28;20599;-69
2022/11/29 10:15:15;;;;;;;26.83;16.83;;;3.90;99.90;5.10;97029.00;;;;5117062;28;20217;-69
2022/11/29 10:18:13;;;;;;;32.47;17.87;;;3.80;99.90;5.10;97030.00;;;;5115686;28;20217;-69
2022/11/29 10:21:11;;;;;;;33.73;18.03;;;3.80;99.90;5.20;97029.00;;;;5118057;28;20281;-69
2022/11/29 10:24:05;;;;;;;36.27;17.77;;;3.80;99.90;5.20;97016.00;;;;5118583;28;20246;-69
2022/11/29 10:26:54;;;;;;;31.20;17.53;;;3.80;99.90;5.30;97016.00;;;;5124398;28;20202;-69
2022/11/29 10:29:42;;;;;;;33.47;16.23;;;4.00;99.90;5.30;97009.00;;;;5118327;28;20818;-69
2022/11/29 10:32:33;;;;;;;35.53;17.73;;;3.90;99.90;5.00;97004.00;;;;5117839;28;20206;-68
2022/11/29 10:35:22;;;;;;;33.63;17.80;;;3.80;99.90;5.10;96996.00;;;;5118031;28;20715;-69
2022/11/29 10:38:14;;;;;;;34.80;20.07;;;3.90;99.90;5.30;97009.00;;;;5118637;28;20222;-69
2022/11/29 10:41:21;;;;;;;33.07;17.70;;;3.90;99.90;5.30;97000.00;;;;5118789;28;20571;-69
2022/11/29 10:44:14;;;;;;;29.30;16.30;;;3.90;99.90;5.30;97001.00;;;;5123932;28;20581;-69
2022/11/29 10:47:05;;;;;;;37.33;17.63;;;3.90;99.90;5.40;96997.00;;;;5125256;28;20198;-69
2022/11/29 10:49:58;;;;;;;30.63;17.00;;;4.00;99.90;5.20;97000.00;;;;5116998;28;20221;-69
2022/11/29 10:52:47;;;;;;;34.10;17.03;;;3.90;99.90;5.40;96998.00;;;;5115552;28;20581;-69
2022/11/29 10:55:43;;;;;;;31.47;17.20;;;4.90;99.90;5.30;96992.00;;;;5115290;28;20610;-69
2022/11/29 10:58:32;;;;;;;38.17;19.63;;;4.00;99.90;5.40;96998.00;;;;5117631;28;20217;-69
2022/11/29 11:01:21;;;;;;;38.37;19.23;;;4.00;99.90;5.40;96997.00;;;;5119791;27;20210;-69
2022/11/29 11:04:25;;;;;;;32.37;17.27;;;4.00;99.90;5.40;97003.00;;;;5127962;27;20246;-69
2022/11/29 11:07:26;;;;;;;35.03;17.53;;;4.00;99.90;5.50;97010.00;;;;5118405;27;20221;-69
2022/11/29 11:10:25;;;;;;;34.07;17.73;;;4.10;99.90;5.40;97005.00;;;;5122280;27;20198;-69
2022/11/29 11:13:23;;;;;;;31.37;18.43;;;4.10;99.90;5.40;97012.00;;;;5123925;27;20221;-70
2022/11/29 11:16:18;;;;;;;43.47;19.97;;;4.10;99.90;5.30;97005.00;;;;5125987;27;20194;-69
2022/11/29 11:19:27;;;;;;;42.43;20.03;;;4.00;99.90;5.30;97006.00;;;;5116505;27;20735;-69
2022/11/29 11:22:26;;;;;;;30.43;19.03;;;4.00;99.90;5.30;97017.00;;;;5118568;27;20199;-69
2022/11/29 11:25:28;;;;;;;36.30;18.03;;;4.00;99.90;5.40;97006.00;;;;5121777;27;20205;-69
2022/11/29 11:28:21;;;;;;;32.03;19.83;;;4.00;99.90;5.40;97008.00;;;;5120216;27;20212;-69
2022/11/29 11:31:11;;;;;;;34.93;17.33;;;4.00;99.90;4.90;97020.00;;;;5128881;27;20287;-69
2022/11/29 11:34:27;;;;;;;41.17;19.83;;;3.90;99.90;4.90;97032.00;;;;5126922;27;20222;-69
2022/11/29 11:37:26;;;;;;;29.03;17.27;;;3.90;99.90;5.10;97014.00;;;;5123272;27;20215;-69
2022/11/29 11:40:28;;;;;;;34.00;18.63;;;3.80;99.90;5.00;97008.00;;;;5116549;27;20210;-69
2022/11/29 11:43:22;;;;;;;37.90;19.50;;;3.80;99.90;5.10;97008.00;;;;5124826;27;20218;-69
2022/11/29 11:46:10;;;;;;;35.70;19.40;;;3.90;99.90;5.20;97012.00;;;;5126210;27;20270;-69
2022/11/29 11:49:03;;;;;;;28.63;17.13;;;3.80;99.90;5.10;97017.00;;;;5119110;27;20226;-69
2022/11/29 11:51:51;;;;;;;40.10;19.40;;;3.80;99.90;5.00;97011.00;;;;5116444;27;20202;-69
2022/11/29 11:54:45;;;;;;;35.03;20.13;;;3.80;99.90;5.20;97013.00;;;;5117066;27;20236;-69
2022/11/29 11:57:34;;;;;;;33.17;18.27;;;3.80;99.90;5.20;97003.00;;;;5119991;27;20576;-69
2022/11/29 12:00:46;;;;;;;35.30;18.10;;;3.80;99.90;4.70;97005.00;;;;5121155;27;20213;-69
2022/11/29 12:03:58;;;;;;;31.43;19.57;;;3.80;99.90;4.60;97011.00;;;;5119495;27;20241;-69
2022/11/29 12:06:52;;;;;;;31.63;17.03;;;3.70;99.90;4.80;97021.00;;;;5121875;27;20242;-69
2022/11/29 12:09:49;;;;;;;34.60;18.57;;;3.70;99.90;4.90;97019.00;;;;5120485;27;20198;-69
2022/11/29 12:12:41;;;;;;;33.77;18.60;;;3.60;99.90;4.50;97024.00;;;;5120237;27;21138;-69
2022/11/29 12:15:36;;;;;;;32.33;17.20;;;3.60;99.90;4.60;97016.00;;;;5121220;27;20230;-69
2022/11/29 12:18:36;;;;;;;32.90;17.77;;;3.60;99.90;4.60;97019.00;;;;5124537;27;21198;-69
2022/11/29 12:21:32;;;;;;;38.27;21.70;;;3.60;99.90;4.60;97031.00;;;;5117708;27;21058;-69
2022/11/29 12:24:27;;;;;;;33.50;19.70;;;3.50;99.90;4.90;97025.00;;;;5111998;27;20543;-69
2022/11/29 12:27:17;;;;;;;34.50;19.63;;;3.50;99.90;5.00;97022.00;;;;5116302;27;20455;-69
2022/11/29 12:30:13;;;;;;;38.23;21.37;;;3.60;99.90;5.00;97015.00;;;;5113238;27;20504;-69
2022/11/29 12:33:22;;;;;;;36.87;20.60;;;3.60;99.90;5.00;97014.00;;;;5122032;27;20440;-69
2022/11/29 12:36:33;;;;;;;37.10;19.37;;;3.70;99.90;5.00;97013.00;;;;5117299;27;20203;-69
2022/11/29 12:39:51;;;;;;;32.73;19.87;;;3.70;99.90;4.80;97016.00;;;;5122887;27;20604;-69
2022/11/29 12:42:51;;;;;;;43.63;20.30;;;3.60;99.90;4.60;97017.00;;;;5119310;27;20437;-69
2022/11/29 12:45:48;;;;;;;40.37;22.20;;;3.60;99.90;4.80;97013.00;;;;5124026;27;20285;-68
2022/11/29 12:48:51;;;;;;;44.47;23.03;;;3.70;99.90;4.90;97015.00;;;;5116345;27;20882;-69
2022/11/29 12:51:50;;;;;;;38.53;19.87;;;3.60;99.90;4.90;97020.00;;;;5122063;27;20221;-69
2022/11/29 12:54:55;;;;;;;41.80;19.93;;;3.60;99.90;4.70;97004.00;;;;5124365;27;21076;-68
2022/11/29 12:57:55;;;;;;;36.67;21.80;;;3.60;99.90;4.60;97017.00;;;;5123382;27;20416;-69
2022/11/29 13:00:55;;;;;;;38.60;20.63;;;3.60;99.90;4.40;97023.00;;;;5115958;27;20471;-69
2022/11/29 13:03:53;;;;;;;38.33;20.23;;;3.50;99.90;4.60;97014.00;;;;5120289;27;20471;-69
2022/11/29 13:06:49;;;;;;;39.37;20.80;;;3.60;99.90;4.90;97032.00;;;;5120415;27;20428;-69
2022/11/29 13:10:16;;;;;;;34.60;19.03;;;3.50;99.90;4.50;97016.00;;;;5122328;27;20202;-69
2022/11/29 13:13:20;;;;;;;35.40;20.80;;;3.60;99.90;4.60;97023.00;;;;5122711;27;20459;-69
2022/11/29 13:16:21;;;;;;;45.60;25.57;;;3.50;99.90;4.70;97031.00;;;;5121168;27;20493;-69